Time;durP1;ratioP1;P1;durP2;ratioP2;P2;SDS_P1;SDS_P2;PMS_P1;PMS_P2;Temp;Humidity;BMP_temperature;BMP_pressure;BME280_temperature;BME280_humidity;BME280_pressure;Samples;Min_cycle;Max_cycle;Signal;HPM_P1;HPM_P2
2021/09/02 00:05:00;;;;;;;7.00;6.50;;;15.20;99.90;;;;;;10499080;28;20224;-83
2021/09/02 00:10:03;;;;;;;7.00;6.47;;;15.20;99.90;;;;;;10523286;22;20646;-85
2021/09/02 00:15:09;;;;;;;7.13;6.63;;;15.20;99.90;;;;;;10504583;28;20215;-85
2021/09/02 00:20:12;;;;;;;6.77;6.20;;;15.20;99.90;;;;;;10504299;28;20220;-85
2021/09/02 00:25:15;;;;;;;6.67;6.10;;;15.20;99.90;;;;;;10520645;28;20196;-85
2021/09/02 00:30:18;;;;;;;7.37;6.63;;;15.20;99.90;;;;;;10520793;28;20227;-85
2021/09/02 00:35:20;;;;;;;7.37;6.63;;;15.10;99.90;;;;;;10521035;28;20755;-85
2021/09/02 00:40:22;;;;;;;7.03;6.50;;;15.10;99.90;;;;;;10500567;28;20207;-85
2021/09/02 00:45:26;;;;;;;8.30;7.13;;;15.00;99.90;;;;;;10496958;28;20742;-85
2021/09/02 00:50:29;;;;;;;7.40;6.80;;;15.00;99.90;;;;;;10515082;28;20228;-84
2021/09/02 00:55:32;;;;;;;7.37;6.77;;;15.00;99.90;;;;;;10497424;28;20200;-85
2021/09/02 01:00:36;;;;;;;7.17;6.60;;;15.00;99.90;;;;;;10491336;28;20706;-84
2021/09/02 01:05:38;;;;;;;7.90;7.10;;;14.90;99.90;;;;;;10480436;28;20635;-84
2021/09/02 01:10:41;;;;;;;6.70;6.10;;;14.80;99.90;;;;;;10463046;28;1110427;-84
2021/09/02 01:15:44;;;;;;;7.73;6.80;;;14.80;99.90;;;;;;10485161;28;20200;-84
2021/09/02 01:20:46;;;;;;;7.90;7.30;;;14.80;99.90;;;;;;10487785;28;20220;-84
2021/09/02 01:25:50;;;;;;;8.00;7.20;;;14.80;99.90;;;;;;10496962;28;20204;-84
2021/09/02 01:30:52;;;;;;;7.73;7.13;;;14.70;99.90;;;;;;10489823;28;20242;-84
2021/09/02 01:35:54;;;;;;;7.40;6.90;;;14.70;99.90;;;;;;10503055;28;20192;-84
2021/09/02 01:40:58;;;;;;;7.80;7.10;;;14.70;99.90;;;;;;10505348;28;20254;-84
2021/09/02 01:46:00;;;;;;;7.77;7.17;;;14.60;99.90;;;;;;10497983;28;20589;-84
2021/09/02 01:51:02;;;;;;;7.70;7.00;;;14.60;99.90;;;;;;10502189;28;20258;-85
2021/09/02 01:56:06;;;;;;;7.67;6.97;;;14.60;99.90;;;;;;10486989;28;20287;-85
2021/09/02 02:01:08;;;;;;;8.47;7.67;;;14.50;99.90;;;;;;10498714;28;20215;-85
2021/09/02 02:06:11;;;;;;;8.50;7.80;;;14.60;99.90;;;;;;10513157;28;20192;-84
2021/09/02 02:11:14;;;;;;;8.23;7.53;;;14.60;99.90;;;;;;10500909;28;20634;-84
2021/09/02 02:16:16;;;;;;;8.67;7.87;;;14.60;99.90;;;;;;10498589;28;20388;-84
2021/09/02 02:21:19;;;;;;;8.60;7.07;;;14.50;99.90;;;;;;10465966;28;20721;-84
2021/09/02 02:26:22;;;;;;;8.50;7.80;;;14.50;99.90;;;;;;10489417;28;20712;-84
2021/09/02 02:31:24;;;;;;;8.37;7.67;;;14.50;99.90;;;;;;10490322;28;20229;-85
2021/09/02 02:36:26;;;;;;;8.53;7.83;;;14.40;99.90;;;;;;10506448;28;20207;-85
2021/09/02 02:41:30;;;;;;;8.73;8.03;;;14.40;99.90;;;;;;10471408;28;20711;-86
2021/09/02 02:46:32;;;;;;;9.00;8.20;;;14.40;99.90;;;;;;10466783;28;20204;-86
2021/09/02 02:51:35;;;;;;;9.13;8.37;;;14.40;99.90;;;;;;10482808;28;20282;-86
2021/09/02 02:56:38;;;;;;;9.60;8.80;;;14.40;99.90;;;;;;10482904;28;20208;-86
2021/09/02 03:01:40;;;;;;;8.87;8.13;;;14.40;99.90;;;;;;10465695;28;20216;-86
2021/09/02 03:06:44;;;;;;;8.90;8.20;;;14.30;99.90;;;;;;10466605;28;20291;-86
2021/09/02 03:11:48;;;;;;;10.47;9.63;;;14.30;99.90;;;;;;10534085;28;20228;-86
2021/09/02 03:16:50;;;;;;;9.57;8.83;;;14.30;99.90;;;;;;10537963;28;20207;-86
2021/09/02 03:21:52;;;;;;;9.30;8.50;;;14.30;99.90;;;;;;10513000;28;20212;-86
2021/09/02 03:26:56;;;;;;;10.20;9.30;;;14.30;99.90;;;;;;10510865;28;20688;-86
2021/09/02 03:31:58;;;;;;;10.30;9.40;;;14.30;99.90;;;;;;10538809;28;20220;-86
2021/09/02 03:37:00;;;;;;;10.27;9.37;;;14.30;99.90;;;;;;10506643;28;20192;-86
2021/09/02 03:42:04;;;;;;;13.00;9.53;;;14.30;99.90;;;;;;10523264;28;20231;-86
2021/09/02 03:47:06;;;;;;;11.53;9.60;;;14.30;99.90;;;;;;10540389;28;20191;-85
2021/09/02 03:52:09;;;;;;;11.37;10.30;;;14.20;99.90;;;;;;10522196;28;20227;-85
2021/09/02 03:57:12;;;;;;;11.63;10.70;;;14.20;99.90;;;;;;10505147;28;20291;-85
2021/09/02 04:02:14;;;;;;;11.00;9.97;;;14.20;99.90;;;;;;10504402;28;20310;-85
2021/09/02 04:07:16;;;;;;;10.00;9.20;;;14.20;99.90;;;;;;10505028;28;20210;-85
2021/09/02 04:12:20;;;;;;;11.27;10.27;;;14.10;99.90;;;;;;10538217;28;20231;-85
2021/09/02 04:17:23;;;;;;;10.83;9.87;;;14.10;99.90;;;;;;10499733;28;20206;-85
2021/09/02 04:22:25;;;;;;;11.87;10.83;;;14.00;99.90;;;;;;10503810;28;20222;-85
2021/09/02 04:27:29;;;;;;;10.03;9.17;;;14.00;99.90;;;;;;10520624;28;20726;-85
2021/09/02 04:32:32;;;;;;;11.93;10.93;;;14.00;99.90;;;;;;10503369;28;20228;-85
2021/09/02 04:37:36;;;;;;;11.63;10.63;;;14.00;99.90;;;;;;10518416;28;20560;-85
2021/09/02 04:42:40;;;;;;;11.27;10.17;;;14.00;99.90;;;;;;10497554;28;20213;-83
2021/09/02 04:47:42;;;;;;;11.57;10.57;;;14.00;99.90;;;;;;10481007;28;20197;-83
2021/09/02 04:52:44;;;;;;;11.73;10.63;;;14.00;99.90;;;;;;10476467;28;20699;-83
2021/09/02 04:57:48;;;;;;;10.87;9.87;;;14.00;99.90;;;;;;10481457;28;20210;-83
2021/09/02 05:02:50;;;;;;;11.20;10.10;;;14.10;99.90;;;;;;10477399;28;20223;-83
2021/09/02 05:07:52;;;;;;;12.00;10.90;;;14.00;99.90;;;;;;10483278;28;20647;-83
2021/09/02 05:12:55;;;;;;;11.67;10.67;;;14.10;99.90;;;;;;10543193;28;20216;-83
2021/09/02 05:17:58;;;;;;;11.00;9.87;;;14.10;99.90;;;;;;10506489;28;20556;-83
2021/09/02 05:23:00;;;;;;;11.10;10.20;;;14.10;99.90;;;;;;10518027;28;20196;-83
2021/09/02 05:28:03;;;;;;;11.80;10.80;;;14.10;99.90;;;;;;10504690;28;20200;-83
2021/09/02 05:33:06;;;;;;;10.57;9.67;;;14.10;99.90;;;;;;10502466;28;20273;-84
2021/09/02 05:38:11;;;;;;;10.73;9.73;;;14.10;99.90;;;;;;10500506;28;20200;-84
2021/09/02 05:43:14;;;;;;;11.07;9.60;;;14.10;99.90;;;;;;10483882;28;20207;-83
2021/09/02 05:48:17;;;;;;;11.47;10.40;;;14.10;99.90;;;;;;10497484;28;20588;-83
2021/09/02 05:53:19;;;;;;;11.83;10.60;;;14.10;99.90;;;;;;10485462;28;20212;-83
2021/09/02 05:58:22;;;;;;;12.07;11.00;;;14.20;99.90;;;;;;10521965;28;20219;-84
2021/09/02 06:03:24;;;;;;;12.00;10.80;;;14.20;99.90;;;;;;10530079;28;20641;-83
2021/09/02 06:08:29;;;;;;;12.50;11.40;;;14.20;99.90;;;;;;10551811;23;20703;-83
2021/09/02 06:13:33;;;;;;;11.47;10.57;;;14.30;99.90;;;;;;10508065;28;20242;-83
2021/09/02 06:18:35;;;;;;;15.57;12.10;;;14.30;99.90;;;;;;10531575;28;20318;-84
2021/09/02 06:23:37;;;;;;;13.60;12.33;;;14.40;99.90;;;;;;10546381;28;20562;-84
2021/09/02 06:28:41;;;;;;;13.87;12.37;;;14.40;99.90;;;;;;10562477;28;20223;-83
2021/09/02 06:33:43;;;;;;;12.80;11.60;;;14.50;99.90;;;;;;10547320;28;20195;-84
2021/09/02 06:38:45;;;;;;;11.67;10.47;;;14.60;99.90;;;;;;10552555;28;20219;-83
2021/09/02 06:43:48;;;;;;;12.37;11.37;;;14.60;99.90;;;;;;10532683;28;20282;-83
2021/09/02 06:48:50;;;;;;;13.10;11.90;;;14.70;99.90;;;;;;10535673;28;20216;-83
2021/09/02 06:53:53;;;;;;;14.73;13.33;;;14.70;99.90;;;;;;10573258;28;20260;-83
2021/09/02 06:58:58;;;;;;;14.77;13.43;;;14.80;99.90;;;;;;10537252;28;20736;-83
2021/09/02 07:04:00;;;;;;;15.80;14.40;;;14.90;99.90;;;;;;10524427;28;20195;-83
2021/09/02 07:09:02;;;;;;;16.57;14.63;;;15.00;99.90;;;;;;10507917;28;20228;-84
2021/09/02 07:14:06;;;;;;;15.97;14.63;;;15.10;99.90;;;;;;10525783;28;20220;-84
2021/09/02 07:19:08;;;;;;;15.20;13.70;;;15.20;99.90;;;;;;10508157;28;20218;-83
2021/09/02 07:24:12;;;;;;;16.90;15.20;;;15.20;99.90;;;;;;10536441;28;20203;-83
2021/09/02 07:29:19;;;;;;;16.97;15.30;;;15.30;99.90;;;;;;10521544;28;20250;-83
2021/09/02 07:34:21;;;;;;;17.10;15.40;;;15.40;99.90;;;;;;10511349;28;20273;-83
2021/09/02 07:39:23;;;;;;;16.47;14.80;;;15.50;99.90;;;;;;10514040;28;20222;-83
2021/09/02 07:44:30;;;;;;;17.53;15.87;;;15.60;99.90;;;;;;10536069;28;20200;-83
2021/09/02 07:49:32;;;;;;;17.90;16.10;;;15.70;99.90;;;;;;10520893;28;20220;-83
2021/09/02 07:54:34;;;;;;;16.67;15.27;;;15.80;99.90;;;;;;10522623;28;20565;-84
2021/09/02 07:59:38;;;;;;;16.23;14.60;;;15.90;99.90;;;;;;10523675;28;20731;-84
2021/09/02 08:04:40;;;;;;;16.77;15.00;;;16.00;99.90;;;;;;10520117;28;20290;-83
2021/09/02 08:09:42;;;;;;;15.63;14.00;;;16.10;99.90;;;;;;10504284;28;20657;-84
2021/09/02 08:14:45;;;;;;;16.20;14.60;;;16.30;99.90;;;;;;10526703;28;20202;-84
2021/09/02 08:19:47;;;;;;;15.90;14.30;;;16.40;99.90;;;;;;10526445;28;20243;-84
2021/09/02 08:24:53;;;;;;;13.50;12.27;;;16.60;99.90;;;;;;10523061;28;20628;-83
2021/09/02 08:29:58;;;;;;;16.87;15.17;;;16.70;99.90;;;;;;10503659;28;20244;-83
2021/09/02 08:35:00;;;;;;;17.60;12.53;;;16.80;99.90;;;;;;10509124;28;20200;-83
2021/09/02 08:40:03;;;;;;;14.43;13.03;;;16.90;99.90;;;;;;10509706;28;20227;-83
2021/09/02 08:45:08;;;;;;;13.70;12.47;;;17.00;99.90;;;;;;10541974;28;20221;-83
2021/09/02 08:50:11;;;;;;;14.13;12.50;;;17.20;99.90;;;;;;10541908;28;20219;-83
2021/09/02 08:55:13;;;;;;;12.37;11.27;;;17.30;99.90;;;;;;10498780;28;20575;-84
2021/09/02 09:00:17;;;;;;;13.57;12.00;;;17.40;99.90;;;;;;10538031;28;20212;-83
2021/09/02 09:05:20;;;;;;;12.67;11.43;;;17.50;99.90;;;;;;10519985;28;20214;-83
2021/09/02 09:10:24;;;;;;;11.40;10.40;;;17.60;99.90;;;;;;10521488;28;20234;-84
2021/09/02 09:15:30;;;;;;;12.37;11.17;;;17.70;99.90;;;;;;10508028;28;20210;-83
2021/09/02 09:20:32;;;;;;;11.70;10.60;;;17.80;99.90;;;;;;10510763;28;20703;-84
2021/09/02 09:25:34;;;;;;;11.37;10.43;;;17.80;99.90;;;;;;10546792;28;20322;-84
2021/09/02 09:30:39;;;;;;;10.73;9.70;;;17.90;99.90;;;;;;10519158;28;20676;-84
2021/09/02 09:35:42;;;;;;;10.73;9.83;;;18.10;99.90;;;;;;10545677;28;20206;-84
2021/09/02 09:40:46;;;;;;;10.37;9.33;;;18.30;99.90;;;;;;10528608;28;20255;-83
2021/09/02 09:45:51;;;;;;;9.47;8.60;;;18.60;99.90;;;;;;10530769;28;20199;-83
2021/09/02 09:51:13;;;;;;;10.90;9.93;;;18.90;99.90;;;;;;10530829;28;20224;-83
2021/09/02 09:56:18;;;;;;;8.60;7.90;;;19.30;99.90;;;;;;10518127;28;20201;-84
2021/09/02 10:01:21;;;;;;;9.23;8.47;;;19.70;99.90;;;;;;10517377;28;20208;-84
2021/09/02 10:06:24;;;;;;;8.97;8.17;;;20.10;99.90;;;;;;10503022;28;20204;-84
2021/09/02 10:11:27;;;;;;;8.73;7.93;;;20.50;99.90;;;;;;10517736;28;20459;-83
2021/09/02 10:16:31;;;;;;;8.70;7.90;;;20.50;99.90;;;;;;10517393;28;20550;-83
2021/09/02 10:21:35;;;;;;;8.07;7.37;;;20.40;99.90;;;;;;10500734;28;20822;-83
2021/09/02 10:26:38;;;;;;;8.03;7.30;;;20.30;99.90;;;;;;10518263;28;20199;-84
2021/09/02 10:31:41;;;;;;;8.17;7.47;;;20.10;99.90;;;;;;10521431;28;20223;-84
2021/09/02 10:36:44;;;;;;;8.00;6.80;;;20.00;99.90;;;;;;10519445;28;20275;-84
2021/09/02 10:41:50;;;;;;;16.07;7.53;;;19.90;99.90;;;;;;10487168;28;20236;-84
2021/09/02 10:46:55;;;;;;;7.27;6.67;;;19.80;99.90;;;;;;10508728;28;20204;-84
2021/09/02 10:51:58;;;;;;;7.20;6.60;;;19.70;99.90;;;;;;10528861;28;20751;-84
2021/09/02 10:57:10;;;;;;;7.73;7.13;;;19.70;99.90;;;;;;10515162;28;20621;-83
2021/09/02 11:02:41;;;;;;;7.67;7.00;;;19.70;99.90;;;;;;10547302;28;20242;-84
2021/09/02 11:07:46;;;;;;;7.23;6.73;;;19.70;99.90;;;;;;10535547;28;20196;-83
2021/09/02 11:12:59;;;;;;;7.07;6.50;;;19.60;99.90;;;;;;10526827;28;20592;-84
2021/09/02 11:18:07;;;;;;;6.23;5.73;;;19.60;99.90;;;;;;10510307;28;20195;-83
2021/09/02 11:23:13;;;;;;;6.93;6.33;;;19.80;99.90;;;;;;10521645;28;20235;-85
2021/09/02 11:28:17;;;;;;;7.03;6.47;;;19.80;99.90;;;;;;10527114;28;20200;-84
2021/09/02 11:33:21;;;;;;;6.27;5.77;;;19.90;99.90;;;;;;10546513;28;20223;-83
2021/09/02 11:38:24;;;;;;;6.50;5.97;;;20.00;99.90;;;;;;10527315;28;20184;-83
2021/09/02 11:43:29;;;;;;;6.67;6.17;;;20.10;99.90;;;;;;10520471;28;20275;-83
2021/09/02 11:48:52;;;;;;;6.53;6.03;;;20.10;99.90;;;;;;10525057;28;20200;-84
2021/09/02 11:54:05;;;;;;;6.57;5.97;;;20.10;99.90;;;;;;10533893;28;20273;-84
2021/09/02 11:59:10;;;;;;;6.63;6.03;;;20.10;99.90;;;;;;10520598;28;20216;-84
2021/09/02 12:04:19;;;;;;;6.10;5.60;;;20.20;99.90;;;;;;10511484;28;20212;-84
2021/09/02 12:16:09;;;;;;;6.97;6.00;;;20.10;99.90;;;;;;10440891;28;20189;-85
2021/09/02 18:13:58;;;;;;;7.70;6.60;;;19.50;99.90;;;;;;10520137;22;20234;-83
2021/09/02 18:19:00;;;;;;;9.50;8.47;;;19.40;99.90;;;;;;10494042;28;20291;-83
2021/09/02 18:24:04;;;;;;;7.90;7.30;;;19.30;99.90;;;;;;10512102;28;20566;-82
2021/09/02 18:29:08;;;;;;;9.00;7.40;;;19.20;99.90;;;;;;10531917;28;20200;-83
2021/09/02 18:34:11;;;;;;;9.53;8.77;;;19.10;99.90;;;;;;10532638;28;20224;-83
2021/09/02 18:39:13;;;;;;;8.80;8.00;;;19.00;99.90;;;;;;10535720;28;20263;-83
2021/09/02 18:44:19;;;;;;;7.87;7.27;;;18.90;99.90;;;;;;10536010;28;20295;-83
2021/09/02 18:49:21;;;;;;;8.93;8.13;;;18.90;99.90;;;;;;10555409;28;20275;-83
2021/09/02 18:54:23;;;;;;;7.63;7.03;;;18.80;99.90;;;;;;10552652;28;20220;-83
2021/09/02 18:59:26;;;;;;;9.83;8.83;;;18.80;99.90;;;;;;10536803;28;20223;-83
2021/09/02 19:04:30;;;;;;;9.10;8.40;;;18.70;99.90;;;;;;10535292;28;20655;-83
2021/09/02 19:09:34;;;;;;;9.23;8.23;;;18.70;99.90;;;;;;10563732;28;20228;-82
2021/09/02 19:14:39;;;;;;;8.80;7.97;;;18.60;99.90;;;;;;10541839;28;20223;-83
2021/09/02 19:19:42;;;;;;;9.10;8.10;;;18.60;99.90;;;;;;10529362;28;20687;-82
2021/09/02 19:24:47;;;;;;;10.80;8.60;;;18.50;99.90;;;;;;10522718;28;20347;-82
2021/09/02 19:29:51;;;;;;;8.77;8.07;;;18.50;99.90;;;;;;10545903;28;20226;-83
2021/09/02 19:34:55;;;;;;;8.90;8.07;;;18.40;99.90;;;;;;10527865;28;20714;-82
2021/09/02 19:39:59;;;;;;;8.03;7.33;;;18.40;99.90;;;;;;10524043;28;20219;-82
2021/09/02 19:45:02;;;;;;;9.67;8.77;;;18.40;99.90;;;;;;10547013;28;20200;-82
2021/09/02 19:50:05;;;;;;;8.07;7.47;;;18.30;99.90;;;;;;10523673;28;20216;-83
2021/09/02 19:55:09;;;;;;;8.27;7.57;;;18.20;99.90;;;;;;10521009;28;20433;-83
2021/09/02 20:00:13;;;;;;;8.73;7.97;;;18.20;99.90;;;;;;10518380;28;20204;-82
2021/09/02 20:05:23;;;;;;;8.53;7.80;;;18.10;99.90;;;;;;10540508;28;20601;-83
2021/09/02 20:10:26;;;;;;;8.70;7.93;;;18.00;99.90;;;;;;10505194;28;20228;-82
2021/09/02 20:15:48;;;;;;;8.67;7.77;;;18.00;99.90;;;;;;10496753;28;20303;-84
2021/09/02 20:20:55;;;;;;;8.50;7.63;;;18.00;99.90;;;;;;10464376;28;20216;-84
2021/09/02 20:25:57;;;;;;;7.83;7.23;;;17.90;99.90;;;;;;10480405;28;20205;-83
2021/09/02 20:31:04;;;;;;;8.10;7.40;;;17.90;99.90;;;;;;10480344;28;20320;-82
2021/09/02 20:36:14;;;;;;;8.90;8.00;;;17.80;99.90;;;;;;10480080;28;20543;-82
2021/09/02 20:41:27;;;;;;;7.93;7.13;;;17.80;99.90;;;;;;10504762;28;20212;-83
2021/09/02 20:46:38;;;;;;;8.23;7.47;;;17.70;99.90;;;;;;10515598;28;20234;-84
2021/09/02 20:51:52;;;;;;;8.20;7.50;;;17.70;99.90;;;;;;10505480;28;20749;-82
2021/09/02 20:57:01;;;;;;;8.00;7.30;;;17.60;99.90;;;;;;10539268;28;20552;-83
2021/09/02 21:02:09;;;;;;;7.70;7.00;;;17.60;99.90;;;;;;10540040;28;20215;-83
2021/09/02 21:07:12;;;;;;;8.40;7.50;;;17.50;99.90;;;;;;10549736;28;20568;-83
2021/09/02 21:12:19;;;;;;;7.90;7.30;;;17.50;99.90;;;;;;10550930;28;20737;-84
2021/09/02 21:17:26;;;;;;;8.83;8.13;;;17.40;99.90;;;;;;10515720;28;20261;-83
2021/09/02 21:22:37;;;;;;;8.37;7.67;;;17.40;99.90;;;;;;10503269;28;20556;-82
2021/09/02 21:28:07;;;;;;;8.87;8.10;;;17.40;99.90;;;;;;10519680;28;20191;-82
2021/09/02 21:33:22;;;;;;;8.90;8.10;;;17.30;99.90;;;;;;10518432;28;20216;-82
2021/09/02 21:38:35;;;;;;;8.83;8.03;;;17.20;99.90;;;;;;10502797;28;20195;-82
2021/09/02 21:43:48;;;;;;;8.93;8.23;;;17.20;99.90;;;;;;10493582;28;20722;-82
2021/09/02 21:48:55;;;;;;;8.40;7.70;;;17.10;99.90;;;;;;10477036;28;20215;-82
2021/09/02 21:54:06;;;;;;;9.10;8.20;;;17.00;99.90;;;;;;10476528;28;20282;-82
2021/09/02 21:59:09;;;;;;;7.77;7.07;;;17.00;99.90;;;;;;10459440;28;20679;-82
2021/09/02 22:04:19;;;;;;;10.03;9.07;;;16.90;99.90;;;;;;10477710;28;20200;-82
2021/09/02 22:09:26;;;;;;;8.80;8.10;;;16.90;99.90;;;;;;10495927;28;20189;-84
2021/09/02 22:14:31;;;;;;;8.40;7.70;;;16.90;99.90;;;;;;10510690;28;20227;-82
2021/09/02 22:19:40;;;;;;;8.17;7.47;;;16.90;99.90;;;;;;10519642;28;20215;-83
2021/09/02 22:24:48;;;;;;;6.20;5.70;;;16.90;99.90;;;;;;10518904;28;20273;-83
2021/09/02 22:29:51;;;;;;;8.90;8.13;;;16.80;99.90;;;;;;10537585;28;20216;-82
2021/09/02 22:34:55;;;;;;;8.70;8.00;;;16.70;99.90;;;;;;10502209;28;20229;-83
2021/09/02 22:39:59;;;;;;;9.03;8.23;;;16.60;99.90;;;;;;10520319;28;20216;-81
2021/09/02 22:45:03;;;;;;;9.53;8.73;;;16.70;99.90;;;;;;10544430;28;20242;-83
2021/09/02 22:50:10;;;;;;;8.20;7.50;;;16.60;99.90;;;;;;10544446;28;20208;-83
2021/09/02 22:55:12;;;;;;;8.80;8.10;;;16.60;99.90;;;;;;10544754;28;20227;-83
2021/09/02 23:00:15;;;;;;;10.70;9.07;;;16.60;99.90;;;;;;10552849;28;20230;-83
2021/09/02 23:05:18;;;;;;;9.10;8.30;;;16.60;99.90;;;;;;10526075;28;20556;-84
2021/09/02 23:10:29;;;;;;;9.13;8.33;;;16.50;99.90;;;;;;10519168;28;20238;-81
2021/09/02 23:15:35;;;;;;;11.60;7.83;;;16.50;99.90;;;;;;10524443;28;20617;-82
2021/09/02 23:20:39;;;;;;;8.00;7.37;;;16.40;99.90;;;;;;10541950;28;20273;-81
2021/09/02 23:25:43;;;;;;;8.57;7.90;;;16.30;99.90;;;;;;10540193;28;20207;-82
2021/09/02 23:30:46;;;;;;;8.00;7.37;;;16.20;99.90;;;;;;10541582;28;20220;-82
2021/09/02 23:35:50;;;;;;;8.27;7.53;;;16.20;99.90;;;;;;10523368;28;20219;-83
2021/09/02 23:40:53;;;;;;;8.00;7.30;;;16.30;99.90;;;;;;10522379;28;20318;-82
2021/09/02 23:45:55;;;;;;;8.20;7.60;;;16.20;99.90;;;;;;10540365;28;20271;-82
2021/09/02 23:51:00;;;;;;;8.07;7.43;;;16.20;99.90;;;;;;10504900;28;20717;-82
2021/09/02 23:56:02;;;;;;;8.37;7.60;;;16.20;99.90;;;;;;10526509;28;20758;-83
